Aviation Digital Data Service (ADDS)

Output produced by METARs form (0247 UTC 22 April 2019)
found at http://www.aviationweather.gov/metar/data/
 
METAR text: ENAN 220220Z AUTO 23017KT 7000 -DZ BKN018/// OVC035/// 05/02 Q1012
Conditions at: ENAN (ANDOYA/ANDENES(A, NO) observed 0220 UTC 22 April 2019
Temperature: 5.0°C (41°F)
Dewpoint: 2.0°C (36°F) [RH = 81%]
Pressure (altimeter): 29.88 inches Hg (1012.0 mb)
Winds: from the SW (230 degrees) at 20 MPH (17 knots; 8.7 m/s)
Visibility: 4 miles ( 7 km)
Ceiling: 1800 feet AGL
Clouds: broken clouds at 1800 feet AGL
overcast cloud deck at 3500 feet AGL
Weather: -DZ  (light drizzle)

METAR text: ENAN 220150Z AUTO 23016KT 9999 FEW006/// BKN024/// OVC048/// 05/02 Q1012
Conditions at: ENAN (ANDOYA/ANDENES(A, NO) observed 0150 UTC 22 April 2019
Temperature: 5.0°C (41°F)
Dewpoint: 2.0°C (36°F) [RH = 81%]
Pressure (altimeter): 29.88 inches Hg (1012.0 mb)
Winds: from the SW (230 degrees) at 18 MPH (16 knots; 8.2 m/s)
Visibility: 6 or more miles (10+ km)
Ceiling: 2400 feet AGL
Clouds: few clouds at 600 feet AGL
broken clouds at 2400 feet AGL
overcast cloud deck at 4800 feet AGL
Weather: no significant weather observed at this time

METAR text: ENAN 220120Z AUTO 24015KT 9999 -RA BKN033/// OVC048/// 05/02 Q1012
Conditions at: ENAN (ANDOYA/ANDENES(A, NO) observed 0120 UTC 22 April 2019
Temperature: 5.0°C (41°F)
Dewpoint: 2.0°C (36°F) [RH = 81%]
Pressure (altimeter): 29.88 inches Hg (1012.0 mb)
Winds: from the WSW (240 degrees) at 17 MPH (15 knots; 7.7 m/s)
Visibility: 6 or more miles (10+ km)
Ceiling: 3300 feet AGL
Clouds: broken clouds at 3300 feet AGL
overcast cloud deck at 4800 feet AGL
Weather: -RA  (light rain)

METAR text: ENAN 220050Z AUTO 23016KT 9999 FEW026/// 05/01 Q1012
Conditions at: ENAN (ANDOYA/ANDENES(A, NO) observed 0050 UTC 22 April 2019
Temperature: 5.0°C (41°F)
Dewpoint: 1.0°C (34°F) [RH = 75%]
Pressure (altimeter): 29.88 inches Hg (1012.0 mb)
Winds: from the SW (230 degrees) at 18 MPH (16 knots; 8.2 m/s)
Visibility: 6 or more miles (10+ km)
Ceiling: at least 12,000 feet AGL
Clouds: few clouds at 2600 feet AGL
Weather: no significant weather observed at this time

METAR text: ENAN 220020Z AUTO 25022G34KT 230V290 9999 UP FEW025/// SCT035/// BKN086/// 06/02 Q1011
Conditions at: ENAN (ANDOYA/ANDENES(A, NO) observed 0020 UTC 22 April 2019
Temperature: 6.0°C (43°F)
Dewpoint: 2.0°C (36°F) [RH = 75%]
Pressure (altimeter): 29.85 inches Hg (1011.0 mb)
Winds: from the WSW (250 degrees) at 25 MPH (22 knots; 11.3 m/s)
gusting to 39 MPH (34 knots; 17.5 m/s)
Visibility: 6 or more miles (10+ km)
Ceiling: 8600 feet AGL
Clouds: few clouds at 2500 feet AGL
scattered clouds at 3500 feet AGL
broken clouds at 8600 feet AGL
Weather: UP  (unknown precipitation)

METAR text: ENAN 212350Z AUTO 25022KT 9999 FEW021/// SCT031/// OVC088/// 06/02 Q1011
Conditions at: ENAN (ANDOYA/ANDENES(A, NO) observed 2350 UTC 21 April 2019
Temperature: 6.0°C (43°F)
Dewpoint: 2.0°C (36°F) [RH = 75%]
Pressure (altimeter): 29.85 inches Hg (1011.0 mb)
Winds: from the WSW (250 degrees) at 25 MPH (22 knots; 11.3 m/s)
Visibility: 6 or more miles (10+ km)
Ceiling: 8800 feet AGL
Clouds: few clouds at 2100 feet AGL
scattered clouds at 3100 feet AGL
overcast cloud deck at 8800 feet AGL
Weather: no significant weather observed at this time

METAR text: ENAN 212320Z AUTO 24021G37KT 9999 BKN021/// OVC094/// 06/02 Q1011
Conditions at: ENAN (ANDOYA/ANDENES(A, NO) observed 2320 UTC 21 April 2019
Temperature: 6.0°C (43°F)
Dewpoint: 2.0°C (36°F) [RH = 75%]
Pressure (altimeter): 29.85 inches Hg (1011.0 mb)
Winds: from the WSW (240 degrees) at 24 MPH (21 knots; 10.8 m/s)
gusting to 43 MPH (37 knots; 19.0 m/s)
Visibility: 6 or more miles (10+ km)
Ceiling: 2100 feet AGL
Clouds: broken clouds at 2100 feet AGL
overcast cloud deck at 9400 feet AGL
Weather: no significant weather observed at this time

METAR text: ENAN 212250Z AUTO 25022G32KT 9999 SCT022/// OVC098/// 06/02 Q1011
Conditions at: ENAN (ANDOYA/ANDENES(A, NO) observed 2250 UTC 21 April 2019
Temperature: 6.0°C (43°F)
Dewpoint: 2.0°C (36°F) [RH = 75%]
Pressure (altimeter): 29.85 inches Hg (1011.0 mb)
Winds: from the WSW (250 degrees) at 25 MPH (22 knots; 11.3 m/s)
gusting to 37 MPH (32 knots; 16.5 m/s)
Visibility: 6 or more miles (10+ km)
Ceiling: 9800 feet AGL
Clouds: scattered clouds at 2200 feet AGL
overcast cloud deck at 9800 feet AGL
Weather: no significant weather observed at this time

METAR text: ENAN 212220Z AUTO 25020G31KT 9999 BKN022/// BKN031/// OVC100/// 06/02 Q1011
Conditions at: ENAN (ANDOYA/ANDENES(A, NO) observed 2220 UTC 21 April 2019
Temperature: 6.0°C (43°F)
Dewpoint: 2.0°C (36°F) [RH = 75%]
Pressure (altimeter): 29.85 inches Hg (1011.0 mb)
Winds: from the WSW (250 degrees) at 23 MPH (20 knots; 10.3 m/s)
gusting to 36 MPH (31 knots; 15.9 m/s)
Visibility: 6 or more miles (10+ km)
Ceiling: 2200 feet AGL
Clouds: broken clouds at 2200 feet AGL
broken clouds at 3100 feet AGL
overcast cloud deck at 10000 feet AGL
Weather: no significant weather observed at this time

METAR text: ENAN 212150Z AUTO 24018KT 9999 FEW006/// BKN018/// OVC031/// 06/03 Q1010
Conditions at: ENAN (ANDOYA/ANDENES(A, NO) observed 2150 UTC 21 April 2019
Temperature: 6.0°C (43°F)
Dewpoint: 3.0°C (37°F) [RH = 81%]
Pressure (altimeter): 29.82 inches Hg (1010.0 mb)
Winds: from the WSW (240 degrees) at 21 MPH (18 knots; 9.3 m/s)
Visibility: 6 or more miles (10+ km)
Ceiling: 1800 feet AGL
Clouds: few clouds at 600 feet AGL
broken clouds at 1800 feet AGL
overcast cloud deck at 3100 feet AGL
Weather: no significant weather observed at this time

METAR text: ENAN 212120Z AUTO 23021KT 9999 FEW006/// BKN019/// OVC028/// 06/03 Q1011
Conditions at: ENAN (ANDOYA/ANDENES(A, NO) observed 2120 UTC 21 April 2019
Temperature: 6.0°C (43°F)
Dewpoint: 3.0°C (37°F) [RH = 81%]
Pressure (altimeter): 29.85 inches Hg (1011.0 mb)
Winds: from the SW (230 degrees) at 24 MPH (21 knots; 10.8 m/s)
Visibility: 6 or more miles (10+ km)
Ceiling: 1900 feet AGL
Clouds: few clouds at 600 feet AGL
broken clouds at 1900 feet AGL
overcast cloud deck at 2800 feet AGL
Weather: no significant weather observed at this time

METAR text: ENAN 212050Z AUTO 24021KT 9999 BKN021/// OVC028/// 06/02 Q1010
Conditions at: ENAN (ANDOYA/ANDENES(A, NO) observed 2050 UTC 21 April 2019
Temperature: 6.0°C (43°F)
Dewpoint: 2.0°C (36°F) [RH = 75%]
Pressure (altimeter): 29.82 inches Hg (1010.0 mb)
Winds: from the WSW (240 degrees) at 24 MPH (21 knots; 10.8 m/s)
Visibility: 6 or more miles (10+ km)
Ceiling: 2100 feet AGL
Clouds: broken clouds at 2100 feet AGL
overcast cloud deck at 2800 feet AGL
Weather: no significant weather observed at this time

METAR text: ENAN 212020Z AUTO 24018KT 9999 BKN022/// OVC059/// 06/02 Q1010
Conditions at: ENAN (ANDOYA/ANDENES(A, NO) observed 2020 UTC 21 April 2019
Temperature: 6.0°C (43°F)
Dewpoint: 2.0°C (36°F) [RH = 75%]
Pressure (altimeter): 29.82 inches Hg (1010.0 mb)
Winds: from the WSW (240 degrees) at 21 MPH (18 knots; 9.3 m/s)
Visibility: 6 or more miles (10+ km)
Ceiling: 2200 feet AGL
Clouds: broken clouds at 2200 feet AGL
overcast cloud deck at 5900 feet AGL
Weather: no significant weather observed at this time

METAR text: ENAN 211950Z AUTO 24018KT 9999 BKN021/// OVC130/// 06/03 Q1010
Conditions at: ENAN (ANDOYA/ANDENES(A, NO) observed 1950 UTC 21 April 2019
Temperature: 6.0°C (43°F)
Dewpoint: 3.0°C (37°F) [RH = 81%]
Pressure (altimeter): 29.82 inches Hg (1010.0 mb)
Winds: from the WSW (240 degrees) at 21 MPH (18 knots; 9.3 m/s)
Visibility: 6 or more miles (10+ km)
Ceiling: 2100 feet AGL
Clouds: broken clouds at 2100 feet AGL
overcast cloud deck at 13000 feet AGL
Weather: no significant weather observed at this time

METAR text: ENAN 211920Z AUTO 25020KT 9999 BKN019/// OVC049/// 06/03 Q1010
Conditions at: ENAN (ANDOYA/ANDENES(A, NO) observed 1920 UTC 21 April 2019
Temperature: 6.0°C (43°F)
Dewpoint: 3.0°C (37°F) [RH = 81%]
Pressure (altimeter): 29.82 inches Hg (1010.0 mb)
Winds: from the WSW (250 degrees) at 23 MPH (20 knots; 10.3 m/s)
Visibility: 6 or more miles (10+ km)
Ceiling: 1900 feet AGL
Clouds: broken clouds at 1900 feet AGL
overcast cloud deck at 4900 feet AGL
Weather: no significant weather observed at this time

METAR text: ENAN 211850Z AUTO 25024G39KT 9999 SCT018/// BKN032/// 06/03 Q1010
Conditions at: ENAN (ANDOYA/ANDENES(A, NO) observed 1850 UTC 21 April 2019
Temperature: 6.0°C (43°F)
Dewpoint: 3.0°C (37°F) [RH = 81%]
Pressure (altimeter): 29.82 inches Hg (1010.0 mb)
Winds: from the WSW (250 degrees) at 28 MPH (24 knots; 12.3 m/s)
gusting to 45 MPH (39 knots; 20.1 m/s)
Visibility: 6 or more miles (10+ km)
Ceiling: 3200 feet AGL
Clouds: scattered clouds at 1800 feet AGL
broken clouds at 3200 feet AGL
Weather: no significant weather observed at this time

METAR text: ENAN 211820Z AUTO 25019G30KT 9999 SCT020/// BKN027/// 06/02 Q1009
Conditions at: ENAN (ANDOYA/ANDENES(A, NO) observed 1820 UTC 21 April 2019
Temperature: 6.0°C (43°F)
Dewpoint: 2.0°C (36°F) [RH = 75%]
Pressure (altimeter): 29.79 inches Hg (1009.0 mb)
Winds: from the WSW (250 degrees) at 22 MPH (19 knots; 9.8 m/s)
gusting to 34 MPH (30 knots; 15.4 m/s)
Visibility: 6 or more miles (10+ km)
Ceiling: 2700 feet AGL
Clouds: scattered clouds at 2000 feet AGL
broken clouds at 2700 feet AGL
Weather: no significant weather observed at this time

METAR text: ENAN 211750Z AUTO 25025G40KT 220V280 9999 BKN018/// OVC025/// 06/03 Q1009
Conditions at: ENAN (ANDOYA/ANDENES(A, NO) observed 1750 UTC 21 April 2019
Temperature: 6.0°C (43°F)
Dewpoint: 3.0°C (37°F) [RH = 81%]
Pressure (altimeter): 29.79 inches Hg (1009.0 mb)
Winds: from the WSW (250 degrees) at 29 MPH (25 knots; 12.9 m/s)
gusting to 46 MPH (40 knots; 20.6 m/s)
Visibility: 6 or more miles (10+ km)
Ceiling: 1800 feet AGL
Clouds: broken clouds at 1800 feet AGL
overcast cloud deck at 2500 feet AGL
Weather: no significant weather observed at this time

METAR text: ENAN 211720Z AUTO 25024G39KT 9999 SCT022/// 06/02 Q1009
Conditions at: ENAN (ANDOYA/ANDENES(A, NO) observed 1720 UTC 21 April 2019
Temperature: 6.0°C (43°F)
Dewpoint: 2.0°C (36°F) [RH = 75%]
Pressure (altimeter): 29.79 inches Hg (1009.0 mb)
Winds: from the WSW (250 degrees) at 28 MPH (24 knots; 12.3 m/s)
gusting to 45 MPH (39 knots; 20.1 m/s)
Visibility: 6 or more miles (10+ km)
Ceiling: at least 12,000 feet AGL
Clouds: scattered clouds at 2200 feet AGL
Weather: no significant weather observed at this time

METAR text: ENAN 211650Z AUTO 25024G39KT 9999 FEW002/// BKN018/// BKN036/// 06/03 Q1009 RERA
Conditions at: ENAN (ANDOYA/ANDENES(A, NO) observed 1650 UTC 21 April 2019
Temperature: 6.0°C (43°F)
Dewpoint: 3.0°C (37°F) [RH = 81%]
Pressure (altimeter): 29.79 inches Hg (1009.0 mb)
Winds: from the WSW (250 degrees) at 28 MPH (24 knots; 12.3 m/s)
gusting to 45 MPH (39 knots; 20.1 m/s)
Visibility: 6 or more miles (10+ km)
Ceiling: 1800 feet AGL
Clouds: few clouds at 200 feet AGL
broken clouds at 1800 feet AGL
broken clouds at 3600 feet AGL
Weather: no significant weather observed at this time

METAR text: ENAN 211620Z AUTO 25024KT 9999 SCT019/// BKN026/// 06/03 Q1009
Conditions at: ENAN (ANDOYA/ANDENES(A, NO) observed 1620 UTC 21 April 2019
Temperature: 6.0°C (43°F)
Dewpoint: 3.0°C (37°F) [RH = 81%]
Pressure (altimeter): 29.79 inches Hg (1009.0 mb)
Winds: from the WSW (250 degrees) at 28 MPH (24 knots; 12.3 m/s)
Visibility: 6 or more miles (10+ km)
Ceiling: 2600 feet AGL
Clouds: scattered clouds at 1900 feet AGL
broken clouds at 2600 feet AGL
Weather: no significant weather observed at this time

METAR text: ENAN 211550Z 25025G36KT 9999 VCSH FEW003 BKN020 BKN036 06/03 Q1008 RESHRA
Conditions at: ENAN (ANDOYA/ANDENES(A, NO) observed 1550 UTC 21 April 2019
Temperature: 6.0°C (43°F)
Dewpoint: 3.0°C (37°F) [RH = 81%]
Pressure (altimeter): 29.76 inches Hg (1008.0 mb)
Winds: from the WSW (250 degrees) at 29 MPH (25 knots; 12.9 m/s)
gusting to 41 MPH (36 knots; 18.5 m/s)
Visibility: 6 or more miles (10+ km)
Ceiling: 2000 feet AGL
Clouds: few clouds at 300 feet AGL
broken clouds at 2000 feet AGL
broken clouds at 3600 feet AGL
Weather: VCSH  (showers in vicinity)

METAR text: ENAN 211520Z 24020G31KT 210V280 9999 DZ SCT025 BKN034 06/02 Q1008
Conditions at: ENAN (ANDOYA/ANDENES(A, NO) observed 1520 UTC 21 April 2019
Temperature: 6.0°C (43°F)
Dewpoint: 2.0°C (36°F) [RH = 75%]
Pressure (altimeter): 29.76 inches Hg (1008.0 mb)
Winds: from the WSW (240 degrees) at 23 MPH (20 knots; 10.3 m/s)
gusting to 36 MPH (31 knots; 15.9 m/s)
Visibility: 6 or more miles (10+ km)
Ceiling: 3400 feet AGL
Clouds: scattered clouds at 2500 feet AGL
broken clouds at 3400 feet AGL
Weather: DZ  (moderate drizzle)

METAR text: ENAN 211450Z 25027G39KT 9999 VCSH SCT017 BKN026 BKN066 06/02 Q1008
Conditions at: ENAN (ANDOYA/ANDENES(A, NO) observed 1450 UTC 21 April 2019
Temperature: 6.0°C (43°F)
Dewpoint: 2.0°C (36°F) [RH = 75%]
Pressure (altimeter): 29.76 inches Hg (1008.0 mb)
Winds: from the WSW (250 degrees) at 31 MPH (27 knots; 13.9 m/s)
gusting to 45 MPH (39 knots; 20.1 m/s)
Visibility: 6 or more miles (10+ km)
Ceiling: 2600 feet AGL
Clouds: scattered clouds at 1700 feet AGL
broken clouds at 2600 feet AGL
broken clouds at 6600 feet AGL
Weather: VCSH  (showers in vicinity)

METAR text: ENAN 211420Z 25022KT 9999 VCSH BKN019 OVC033 06/03 Q1008
Conditions at: ENAN (ANDOYA/ANDENES(A, NO) observed 1420 UTC 21 April 2019
Temperature: 6.0°C (43°F)
Dewpoint: 3.0°C (37°F) [RH = 81%]
Pressure (altimeter): 29.76 inches Hg (1008.0 mb)
Winds: from the WSW (250 degrees) at 25 MPH (22 knots; 11.3 m/s)
Visibility: 6 or more miles (10+ km)
Ceiling: 1900 feet AGL
Clouds: broken clouds at 1900 feet AGL
overcast cloud deck at 3300 feet AGL
Weather: VCSH  (showers in vicinity)

METAR text: ENAN 211350Z 24022KT 9999 VCSH FEW004 BKN018 OVC033 06/03 Q1008
Conditions at: ENAN (ANDOYA/ANDENES(A, NO) observed 1350 UTC 21 April 2019
Temperature: 6.0°C (43°F)
Dewpoint: 3.0°C (37°F) [RH = 81%]
Pressure (altimeter): 29.76 inches Hg (1008.0 mb)
Winds: from the WSW (240 degrees) at 25 MPH (22 knots; 11.3 m/s)
Visibility: 6 or more miles (10+ km)
Ceiling: 1800 feet AGL
Clouds: few clouds at 400 feet AGL
broken clouds at 1800 feet AGL
overcast cloud deck at 3300 feet AGL
Weather: VCSH  (showers in vicinity)

METAR text: ENAN 211320Z 24024G36KT 5000 DZ OVC030 05/03 Q1008
Conditions at: ENAN (ANDOYA/ANDENES(A, NO) observed 1320 UTC 21 April 2019
Temperature: 5.0°C (41°F)
Dewpoint: 3.0°C (37°F) [RH = 87%]
Pressure (altimeter): 29.76 inches Hg (1008.0 mb)
Winds: from the WSW (240 degrees) at 28 MPH (24 knots; 12.3 m/s)
gusting to 41 MPH (36 knots; 18.5 m/s)
Visibility: 3 miles ( 5 km)
Ceiling: 3000 feet AGL
Clouds: overcast cloud deck at 3000 feet AGL
Weather: DZ  (moderate drizzle)

METAR text: ENAN 211250Z 25021KT 9999 SHRA FEW021 BKN034 OVC088 06/02 Q1008
Conditions at: ENAN (ANDOYA/ANDENES(A, NO) observed 1250 UTC 21 April 2019
Temperature: 6.0°C (43°F)
Dewpoint: 2.0°C (36°F) [RH = 75%]
Pressure (altimeter): 29.76 inches Hg (1008.0 mb)
Winds: from the WSW (250 degrees) at 24 MPH (21 knots; 10.8 m/s)
Visibility: 6 or more miles (10+ km)
Ceiling: 3400 feet AGL
Clouds: few clouds at 2100 feet AGL
broken clouds at 3400 feet AGL
overcast cloud deck at 8800 feet AGL
Weather: SHRA  (rain showers)

METAR text: ENAN 211220Z 24025G37KT 9999 VCSH FEW016 SCT021 BKN046 06/03 Q1008
Conditions at: ENAN (ANDOYA/ANDENES(A, NO) observed 1220 UTC 21 April 2019
Temperature: 6.0°C (43°F)
Dewpoint: 3.0°C (37°F) [RH = 81%]
Pressure (altimeter): 29.76 inches Hg (1008.0 mb)
Winds: from the WSW (240 degrees) at 29 MPH (25 knots; 12.9 m/s)
gusting to 43 MPH (37 knots; 19.0 m/s)
Visibility: 6 or more miles (10+ km)
Ceiling: 4600 feet AGL
Clouds: few clouds at 1600 feet AGL
scattered clouds at 2100 feet AGL
broken clouds at 4600 feet AGL
Weather: VCSH  (showers in vicinity)

METAR text: ENAN 211150Z 23026G39KT 9999 VCSH FEW021 SCT034 BKN090 06/03 Q1008
Conditions at: ENAN (ANDOYA/ANDENES(A, NO) observed 1150 UTC 21 April 2019
Temperature: 6.0°C (43°F)
Dewpoint: 3.0°C (37°F) [RH = 81%]
Pressure (altimeter): 29.76 inches Hg (1008.0 mb)
Winds: from the SW (230 degrees) at 30 MPH (26 knots; 13.4 m/s)
gusting to 45 MPH (39 knots; 20.1 m/s)
Visibility: 6 or more miles (10+ km)
Ceiling: 9000 feet AGL
Clouds: few clouds at 2100 feet AGL
scattered clouds at 3400 feet AGL
broken clouds at 9000 feet AGL
Weather: VCSH  (showers in vicinity)

METAR text: ENAN 211120Z 24025G36KT 7000 -SHRA FEW003 BKN023 OVC040 05/02 Q1008
Conditions at: ENAN (ANDOYA/ANDENES(A, NO) observed 1120 UTC 21 April 2019
Temperature: 5.0°C (41°F)
Dewpoint: 2.0°C (36°F) [RH = 81%]
Pressure (altimeter): 29.76 inches Hg (1008.0 mb)
Winds: from the WSW (240 degrees) at 29 MPH (25 knots; 12.9 m/s)
gusting to 41 MPH (36 knots; 18.5 m/s)
Visibility: 4 miles ( 7 km)
Ceiling: 2300 feet AGL
Clouds: few clouds at 300 feet AGL
broken clouds at 2300 feet AGL
overcast cloud deck at 4000 feet AGL
Weather: -SHRA  (light rain showers)

METAR text: ENAN 211050Z 24029KT 9999 SHRA SCT021 BKN031 06/02 Q1007 RESHRA
Conditions at: ENAN (ANDOYA/ANDENES(A, NO) observed 1050 UTC 21 April 2019
Temperature: 6.0°C (43°F)
Dewpoint: 2.0°C (36°F) [RH = 75%]
Pressure (altimeter): 29.73 inches Hg (1007.0 mb)
Winds: from the WSW (240 degrees) at 33 MPH (29 knots; 14.9 m/s)
Visibility: 6 or more miles (10+ km)
Ceiling: 3100 feet AGL
Clouds: scattered clouds at 2100 feet AGL
broken clouds at 3100 feet AGL
Weather: SHRA  (rain showers)

METAR text: ENAN 211020Z 24025KT 9999 VCSH FEW013 SCT021 BKN034 06/03 Q1007
Conditions at: ENAN (ANDOYA/ANDENES(A, NO) observed 1020 UTC 21 April 2019
Temperature: 6.0°C (43°F)
Dewpoint: 3.0°C (37°F) [RH = 81%]
Pressure (altimeter): 29.73 inches Hg (1007.0 mb)
Winds: from the WSW (240 degrees) at 29 MPH (25 knots; 12.9 m/s)
Visibility: 6 or more miles (10+ km)
Ceiling: 3400 feet AGL
Clouds: few clouds at 1300 feet AGL
scattered clouds at 2100 feet AGL
broken clouds at 3400 feet AGL
Weather: VCSH  (showers in vicinity)

METAR text: ENAN 210950Z 24027G40KT 9999 VCSH FEW008 BKN041 BKN086 06/02 Q1007
Conditions at: ENAN (ANDOYA/ANDENES(A, NO) observed 0950 UTC 21 April 2019
Temperature: 6.0°C (43°F)
Dewpoint: 2.0°C (36°F) [RH = 75%]
Pressure (altimeter): 29.73 inches Hg (1007.0 mb)
Winds: from the WSW (240 degrees) at 31 MPH (27 knots; 13.9 m/s)
gusting to 46 MPH (40 knots; 20.6 m/s)
Visibility: 6 or more miles (10+ km)
Ceiling: 4100 feet AGL
Clouds: few clouds at 800 feet AGL
broken clouds at 4100 feet AGL
broken clouds at 8600 feet AGL
Weather: VCSH  (showers in vicinity)

METAR text: ENAN 210920Z 24029KT 9999 FEW023 SCT060 07/02 Q1007
Conditions at: ENAN (ANDOYA/ANDENES(A, NO) observed 0920 UTC 21 April 2019
Temperature: 7.0°C (45°F)
Dewpoint: 2.0°C (36°F) [RH = 70%]
Pressure (altimeter): 29.73 inches Hg (1007.0 mb)
Winds: from the WSW (240 degrees) at 33 MPH (29 knots; 14.9 m/s)
Visibility: 6 or more miles (10+ km)
Ceiling: at least 12,000 feet AGL
Clouds: few clouds at 2300 feet AGL
scattered clouds at 6000 feet AGL
Weather: no significant weather observed at this time

METAR text: ENAN 210850Z 24030G41KT 9999 FEW021 SCT061 06/03 Q1007
Conditions at: ENAN (ANDOYA/ANDENES(A, NO) observed 0850 UTC 21 April 2019
Temperature: 6.0°C (43°F)
Dewpoint: 3.0°C (37°F) [RH = 81%]
Pressure (altimeter): 29.73 inches Hg (1007.0 mb)
Winds: from the WSW (240 degrees) at 34 MPH (30 knots; 15.4 m/s)
gusting to 47 MPH (41 knots; 21.1 m/s)
Visibility: 6 or more miles (10+ km)
Ceiling: at least 12,000 feet AGL
Clouds: few clouds at 2100 feet AGL
scattered clouds at 6100 feet AGL
Weather: no significant weather observed at this time

METAR text: ENAN 210750Z AUTO 24026G37KT 9999 SCT025/// BKN040/// 06/02 Q1007
Conditions at: ENAN (ANDOYA/ANDENES(A, NO) observed 0750 UTC 21 April 2019
Temperature: 6.0°C (43°F)
Dewpoint: 2.0°C (36°F) [RH = 75%]
Pressure (altimeter): 29.73 inches Hg (1007.0 mb)
Winds: from the WSW (240 degrees) at 30 MPH (26 knots; 13.4 m/s)
gusting to 43 MPH (37 knots; 19.0 m/s)
Visibility: 6 or more miles (10+ km)
Ceiling: 4000 feet AGL
Clouds: scattered clouds at 2500 feet AGL
broken clouds at 4000 feet AGL
Weather: no significant weather observed at this time

METAR text: ENAN 210720Z AUTO 25029KT 4900 -RA ///038/// 05/02 Q1008 RERA
Conditions at: ENAN (ANDOYA/ANDENES(A, NO) observed 0720 UTC 21 April 2019
Temperature: 5.0°C (41°F)
Dewpoint: 2.0°C (36°F) [RH = 81%]
Pressure (altimeter): 29.76 inches Hg (1008.0 mb)
Winds: from the WSW (250 degrees) at 33 MPH (29 knots; 14.9 m/s)
Visibility: 3 miles ( 5 km)
Ceiling: unknown
Clouds: missing
Weather: -RA  (light rain)

METAR text: ENAN 210650Z AUTO 25029G42KT 5000 -RA FEW019/// SCT030/// BKN040/// 05/02 Q1007
Conditions at: ENAN (ANDOYA/ANDENES(A, NO) observed 0650 UTC 21 April 2019
Temperature: 5.0°C (41°F)
Dewpoint: 2.0°C (36°F) [RH = 81%]
Pressure (altimeter): 29.73 inches Hg (1007.0 mb)
Winds: from the WSW (250 degrees) at 33 MPH (29 knots; 14.9 m/s)
gusting to 48 MPH (42 knots; 21.6 m/s)
Visibility: 3 miles ( 5 km)
Ceiling: 4000 feet AGL
Clouds: few clouds at 1900 feet AGL
scattered clouds at 3000 feet AGL
broken clouds at 4000 feet AGL
Weather: -RA  (light rain)

METAR text: ENAN 210620Z AUTO 24028KT 9999 SCT024/// BKN030/// BKN039/// 07/03 Q1007
Conditions at: ENAN (ANDOYA/ANDENES(A, NO) observed 0620 UTC 21 April 2019
Temperature: 7.0°C (45°F)
Dewpoint: 3.0°C (37°F) [RH = 76%]
Pressure (altimeter): 29.73 inches Hg (1007.0 mb)
Winds: from the WSW (240 degrees) at 32 MPH (28 knots; 14.4 m/s)
Visibility: 6 or more miles (10+ km)
Ceiling: 3000 feet AGL
Clouds: scattered clouds at 2400 feet AGL
broken clouds at 3000 feet AGL
broken clouds at 3900 feet AGL
Weather: no significant weather observed at this time

METAR text: ENAN 210550Z AUTO 24026G37KT 9999 SCT023/// BKN062/// OVC076/// 07/03 Q1007
Conditions at: ENAN (ANDOYA/ANDENES(A, NO) observed 0550 UTC 21 April 2019
Temperature: 7.0°C (45°F)
Dewpoint: 3.0°C (37°F) [RH = 76%]
Pressure (altimeter): 29.73 inches Hg (1007.0 mb)
Winds: from the WSW (240 degrees) at 30 MPH (26 knots; 13.4 m/s)
gusting to 43 MPH (37 knots; 19.0 m/s)
Visibility: 6 or more miles (10+ km)
Ceiling: 6200 feet AGL
Clouds: scattered clouds at 2300 feet AGL
broken clouds at 6200 feet AGL
overcast cloud deck at 7600 feet AGL
Weather: no significant weather observed at this time

METAR text: ENAN 210520Z AUTO 24023KT 9999 SCT025/// OVC074/// 07/03 Q1007
Conditions at: ENAN (ANDOYA/ANDENES(A, NO) observed 0520 UTC 21 April 2019
Temperature: 7.0°C (45°F)
Dewpoint: 3.0°C (37°F) [RH = 76%]
Pressure (altimeter): 29.73 inches Hg (1007.0 mb)
Winds: from the WSW (240 degrees) at 26 MPH (23 knots; 11.8 m/s)
Visibility: 6 or more miles (10+ km)
Ceiling: 7400 feet AGL
Clouds: scattered clouds at 2500 feet AGL
overcast cloud deck at 7400 feet AGL
Weather: no significant weather observed at this time

METAR text: ENAN 210450Z AUTO 25022G32KT 9999 FEW029/// BKN070/// 07/02 Q1008
Conditions at: ENAN (ANDOYA/ANDENES(A, NO) observed 0450 UTC 21 April 2019
Temperature: 7.0°C (45°F)
Dewpoint: 2.0°C (36°F) [RH = 70%]
Pressure (altimeter): 29.76 inches Hg (1008.0 mb)
Winds: from the WSW (250 degrees) at 25 MPH (22 knots; 11.3 m/s)
gusting to 37 MPH (32 knots; 16.5 m/s)
Visibility: 6 or more miles (10+ km)
Ceiling: 7000 feet AGL
Clouds: few clouds at 2900 feet AGL
broken clouds at 7000 feet AGL
Weather: no significant weather observed at this time

METAR text: ENAN 210420Z AUTO 23025G37KT 9999 SCT025/// BKN064/// 06/03 Q1008
Conditions at: ENAN (ANDOYA/ANDENES(A, NO) observed 0420 UTC 21 April 2019
Temperature: 6.0°C (43°F)
Dewpoint: 3.0°C (37°F) [RH = 81%]
Pressure (altimeter): 29.76 inches Hg (1008.0 mb)
Winds: from the SW (230 degrees) at 29 MPH (25 knots; 12.9 m/s)
gusting to 43 MPH (37 knots; 19.0 m/s)
Visibility: 6 or more miles (10+ km)
Ceiling: 6400 feet AGL
Clouds: scattered clouds at 2500 feet AGL
broken clouds at 6400 feet AGL
Weather: no significant weather observed at this time

METAR text: ENAN 210350Z AUTO 24026KT 9999 BKN021/// BKN028/// OVC082/// 06/03 Q1008
Conditions at: ENAN (ANDOYA/ANDENES(A, NO) observed 0350 UTC 21 April 2019
Temperature: 6.0°C (43°F)
Dewpoint: 3.0°C (37°F) [RH = 81%]
Pressure (altimeter): 29.76 inches Hg (1008.0 mb)
Winds: from the WSW (240 degrees) at 30 MPH (26 knots; 13.4 m/s)
Visibility: 6 or more miles (10+ km)
Ceiling: 2100 feet AGL
Clouds: broken clouds at 2100 feet AGL
broken clouds at 2800 feet AGL
overcast cloud deck at 8200 feet AGL
Weather: no significant weather observed at this time

METAR text: ENAN 210320Z AUTO 24022G33KT 9999 SCT004/// BKN019/// BKN033/// 06/04 Q1008
Conditions at: ENAN (ANDOYA/ANDENES(A, NO) observed 0320 UTC 21 April 2019
Temperature: 6.0°C (43°F)
Dewpoint: 4.0°C (39°F) [RH = 87%]
Pressure (altimeter): 29.76 inches Hg (1008.0 mb)
Winds: from the WSW (240 degrees) at 25 MPH (22 knots; 11.3 m/s)
gusting to 38 MPH (33 knots; 17.0 m/s)
Visibility: 6 or more miles (10+ km)
Ceiling: 1900 feet AGL
Clouds: scattered clouds at 400 feet AGL
broken clouds at 1900 feet AGL
broken clouds at 3300 feet AGL
Weather: no significant weather observed at this time

METAR text: ENAN 210250Z AUTO 24021KT 7000 -RA SCT003/// BKN015/// OVC027/// 06/04 Q1008 RERA
Conditions at: ENAN (ANDOYA/ANDENES(A, NO) observed 0250 UTC 21 April 2019
Temperature: 6.0°C (43°F)
Dewpoint: 4.0°C (39°F) [RH = 87%]
Pressure (altimeter): 29.76 inches Hg (1008.0 mb)
Winds: from the WSW (240 degrees) at 24 MPH (21 knots; 10.8 m/s)
Visibility: 4 miles ( 7 km)
Ceiling: 1500 feet AGL
Clouds: scattered clouds at 300 feet AGL
broken clouds at 1500 feet AGL
overcast cloud deck at 2700 feet AGL
Weather: -RA  (light rain)

METAR text: ENAN 210220Z AUTO 21012KT 180V240 7000 -RA SCT005/// BKN018/// BKN021/// 06/04 Q1009
Conditions at: ENAN (ANDOYA/ANDENES(A, NO) observed 0220 UTC 21 April 2019
Temperature: 6.0°C (43°F)
Dewpoint: 4.0°C (39°F) [RH = 87%]
Pressure (altimeter): 29.79 inches Hg (1009.0 mb)
Winds: from the SSW (210 degrees) at 14 MPH (12 knots; 6.2 m/s)
Visibility: 4 miles ( 7 km)
Ceiling: 1800 feet AGL
Clouds: scattered clouds at 500 feet AGL
broken clouds at 1800 feet AGL
broken clouds at 2100 feet AGL
Weather: -RA  (light rain)

METAR text: ENAN 210150Z AUTO 20011KT 9999 -DZ FEW006/// BKN021/// OVC036/// 05/04 Q1009
Conditions at: ENAN (ANDOYA/ANDENES(A, NO) observed 0150 UTC 21 April 2019
Temperature: 5.0°C (41°F)
Dewpoint: 4.0°C (39°F) [RH = 93%]
Pressure (altimeter): 29.79 inches Hg (1009.0 mb)
Winds: from the SSW (200 degrees) at 13 MPH (11 knots; 5.7 m/s)
Visibility: 6 or more miles (10+ km)
Ceiling: 2100 feet AGL
Clouds: few clouds at 600 feet AGL
broken clouds at 2100 feet AGL
overcast cloud deck at 3600 feet AGL
Weather: -DZ  (light drizzle)

METAR text: ENAN 210120Z AUTO 22016KT 9999 DZ FEW007/// BKN021/// OVC031/// 06/04 Q1010 REDZ
Conditions at: ENAN (ANDOYA/ANDENES(A, NO) observed 0120 UTC 21 April 2019
Temperature: 6.0°C (43°F)
Dewpoint: 4.0°C (39°F) [RH = 87%]
Pressure (altimeter): 29.82 inches Hg (1010.0 mb)
Winds: from the SW (220 degrees) at 18 MPH (16 knots; 8.2 m/s)
Visibility: 6 or more miles (10+ km)
Ceiling: 2100 feet AGL
Clouds: few clouds at 700 feet AGL
broken clouds at 2100 feet AGL
overcast cloud deck at 3100 feet AGL
Weather: DZ  (moderate drizzle)

METAR text: ENAN 210050Z AUTO 22016KT 9999 BKN025/// BKN033/// OVC061/// 07/04 Q1010
Conditions at: ENAN (ANDOYA/ANDENES(A, NO) observed 0050 UTC 21 April 2019
Temperature: 7.0°C (45°F)
Dewpoint: 4.0°C (39°F) [RH = 81%]
Pressure (altimeter): 29.82 inches Hg (1010.0 mb)
Winds: from the SW (220 degrees) at 18 MPH (16 knots; 8.2 m/s)
Visibility: 6 or more miles (10+ km)
Ceiling: 2500 feet AGL
Clouds: broken clouds at 2500 feet AGL
broken clouds at 3300 feet AGL
overcast cloud deck at 6100 feet AGL
Weather: no significant weather observed at this time

METAR text: ENAN 210020Z AUTO 23018G30KT 9999 SCT020/// OVC057/// 07/04 Q1010
Conditions at: ENAN (ANDOYA/ANDENES(A, NO) observed 0020 UTC 21 April 2019
Temperature: 7.0°C (45°F)
Dewpoint: 4.0°C (39°F) [RH = 81%]
Pressure (altimeter): 29.82 inches Hg (1010.0 mb)
Winds: from the SW (230 degrees) at 21 MPH (18 knots; 9.3 m/s)
gusting to 34 MPH (30 knots; 15.4 m/s)
Visibility: 6 or more miles (10+ km)
Ceiling: 5700 feet AGL
Clouds: scattered clouds at 2000 feet AGL
overcast cloud deck at 5700 feet AGL
Weather: no significant weather observed at this time

METAR text: ENAN 202350Z AUTO 24024KT 9999 FEW004/// BKN018/// BKN037/// 07/04 Q1010
Conditions at: ENAN (ANDOYA/ANDENES(A, NO) observed 2350 UTC 20 April 2019
Temperature: 7.0°C (45°F)
Dewpoint: 4.0°C (39°F) [RH = 81%]
Pressure (altimeter): 29.82 inches Hg (1010.0 mb)
Winds: from the WSW (240 degrees) at 28 MPH (24 knots; 12.3 m/s)
Visibility: 6 or more miles (10+ km)
Ceiling: 1800 feet AGL
Clouds: few clouds at 400 feet AGL
broken clouds at 1800 feet AGL
broken clouds at 3700 feet AGL
Weather: no significant weather observed at this time

METAR text: ENAN 202320Z AUTO 23019G31KT 9999 DZ SCT023/// BKN037/// OVC043/// 07/04 Q1011
Conditions at: ENAN (ANDOYA/ANDENES(A, NO) observed 2320 UTC 20 April 2019
Temperature: 7.0°C (45°F)
Dewpoint: 4.0°C (39°F) [RH = 81%]
Pressure (altimeter): 29.85 inches Hg (1011.0 mb)
Winds: from the SW (230 degrees) at 22 MPH (19 knots; 9.8 m/s)
gusting to 36 MPH (31 knots; 15.9 m/s)
Visibility: 6 or more miles (10+ km)
Ceiling: 3700 feet AGL
Clouds: scattered clouds at 2300 feet AGL
broken clouds at 3700 feet AGL
overcast cloud deck at 4300 feet AGL
Weather: DZ  (moderate drizzle)

METAR text: ENAN 202250Z AUTO 24022KT 9999 BKN022/// BKN031/// OVC045/// 07/03 Q1011
Conditions at: ENAN (ANDOYA/ANDENES(A, NO) observed 2250 UTC 20 April 2019
Temperature: 7.0°C (45°F)
Dewpoint: 3.0°C (37°F) [RH = 76%]
Pressure (altimeter): 29.85 inches Hg (1011.0 mb)
Winds: from the WSW (240 degrees) at 25 MPH (22 knots; 11.3 m/s)
Visibility: 6 or more miles (10+ km)
Ceiling: 2200 feet AGL
Clouds: broken clouds at 2200 feet AGL
broken clouds at 3100 feet AGL
overcast cloud deck at 4500 feet AGL
Weather: no significant weather observed at this time

METAR text: ENAN 202220Z AUTO 24024G36KT 9999 BKN016/// OVC020/// 07/04 Q1011
Conditions at: ENAN (ANDOYA/ANDENES(A, NO) observed 2220 UTC 20 April 2019
Temperature: 7.0°C (45°F)
Dewpoint: 4.0°C (39°F) [RH = 81%]
Pressure (altimeter): 29.85 inches Hg (1011.0 mb)
Winds: from the WSW (240 degrees) at 28 MPH (24 knots; 12.3 m/s)
gusting to 41 MPH (36 knots; 18.5 m/s)
Visibility: 6 or more miles (10+ km)
Ceiling: 1600 feet AGL
Clouds: broken clouds at 1600 feet AGL
overcast cloud deck at 2000 feet AGL
Weather: no significant weather observed at this time

METAR text: ENAN 202150Z AUTO 23015KT 7000 DZ FEW003/// SCT006/// BKN016/// 07/05 Q1011 REUP
Conditions at: ENAN (ANDOYA/ANDENES(A, NO) observed 2150 UTC 20 April 2019
Temperature: 7.0°C (45°F)
Dewpoint: 5.0°C (41°F) [RH = 87%]
Pressure (altimeter): 29.85 inches Hg (1011.0 mb)
Winds: from the SW (230 degrees) at 17 MPH (15 knots; 7.7 m/s)
Visibility: 4 miles ( 7 km)
Ceiling: 1600 feet AGL
Clouds: few clouds at 300 feet AGL
scattered clouds at 600 feet AGL
broken clouds at 1600 feet AGL
Weather: DZ  (moderate drizzle)

METAR text: ENAN 202120Z AUTO 22017KT 9999 UP OVC020/// 07/05 Q1012 REUP
Conditions at: ENAN (ANDOYA/ANDENES(A, NO) observed 2120 UTC 20 April 2019
Temperature: 7.0°C (45°F)
Dewpoint: 5.0°C (41°F) [RH = 87%]
Pressure (altimeter): 29.88 inches Hg (1012.0 mb)
Winds: from the SW (220 degrees) at 20 MPH (17 knots; 8.7 m/s)
Visibility: 6 or more miles (10+ km)
Ceiling: 2000 feet AGL
Clouds: overcast cloud deck at 2000 feet AGL
Weather: UP  (unknown precipitation)

METAR text: ENAN 202050Z AUTO 21012KT 9999 FEW010/// OVC023/// 07/05 Q1011
Conditions at: ENAN (ANDOYA/ANDENES(A, NO) observed 2050 UTC 20 April 2019
Temperature: 7.0°C (45°F)
Dewpoint: 5.0°C (41°F) [RH = 87%]
Pressure (altimeter): 29.85 inches Hg (1011.0 mb)
Winds: from the SSW (210 degrees) at 14 MPH (12 knots; 6.2 m/s)
Visibility: 6 or more miles (10+ km)
Ceiling: 2300 feet AGL
Clouds: few clouds at 1000 feet AGL
overcast cloud deck at 2300 feet AGL
Weather: no significant weather observed at this time

METAR text: ENAN 202020Z AUTO 17016KT 9999 OVC025/// 07/05 Q1012
Conditions at: ENAN (ANDOYA/ANDENES(A, NO) observed 2020 UTC 20 April 2019
Temperature: 7.0°C (45°F)
Dewpoint: 5.0°C (41°F) [RH = 87%]
Pressure (altimeter): 29.88 inches Hg (1012.0 mb)
Winds: from the S (170 degrees) at 18 MPH (16 knots; 8.2 m/s)
Visibility: 6 or more miles (10+ km)
Ceiling: 2500 feet AGL
Clouds: overcast cloud deck at 2500 feet AGL
Weather: no significant weather observed at this time

METAR text: ENAN 201950Z AUTO 19014KT 9999 OVC026/// 07/04 Q1012
Conditions at: ENAN (ANDOYA/ANDENES(A, NO) observed 1950 UTC 20 April 2019
Temperature: 7.0°C (45°F)
Dewpoint: 4.0°C (39°F) [RH = 81%]
Pressure (altimeter): 29.88 inches Hg (1012.0 mb)
Winds: from the S (190 degrees) at 16 MPH (14 knots; 7.2 m/s)
Visibility: 6 or more miles (10+ km)
Ceiling: 2600 feet AGL
Clouds: overcast cloud deck at 2600 feet AGL
Weather: no significant weather observed at this time

METAR text: ENAN 201920Z AUTO 18017KT 9999 OVC031/// 06/04 Q1012
Conditions at: ENAN (ANDOYA/ANDENES(A, NO) observed 1920 UTC 20 April 2019
Temperature: 6.0°C (43°F)
Dewpoint: 4.0°C (39°F) [RH = 87%]
Pressure (altimeter): 29.88 inches Hg (1012.0 mb)
Winds: from the S (180 degrees) at 20 MPH (17 knots; 8.7 m/s)
Visibility: 6 or more miles (10+ km)
Ceiling: 3100 feet AGL
Clouds: overcast cloud deck at 3100 feet AGL
Weather: no significant weather observed at this time

METAR text: ENAN 201850Z AUTO 19016KT 9999 BKN040/// OVC057/// 07/04 Q1012
Conditions at: ENAN (ANDOYA/ANDENES(A, NO) observed 1850 UTC 20 April 2019
Temperature: 7.0°C (45°F)
Dewpoint: 4.0°C (39°F) [RH = 81%]
Pressure (altimeter): 29.88 inches Hg (1012.0 mb)
Winds: from the S (190 degrees) at 18 MPH (16 knots; 8.2 m/s)
Visibility: 6 or more miles (10+ km)
Ceiling: 4000 feet AGL
Clouds: broken clouds at 4000 feet AGL
overcast cloud deck at 5700 feet AGL
Weather: no significant weather observed at this time

METAR text: ENAN 201820Z AUTO 20029G41KT 9999 -RA SCT046/// BKN072/// BKN098/// 08/04 Q1012
Conditions at: ENAN (ANDOYA/ANDENES(A, NO) observed 1820 UTC 20 April 2019
Temperature: 8.0°C (46°F)
Dewpoint: 4.0°C (39°F) [RH = 76%]
Pressure (altimeter): 29.88 inches Hg (1012.0 mb)
Winds: from the SSW (200 degrees) at 33 MPH (29 knots; 14.9 m/s)
gusting to 47 MPH (41 knots; 21.1 m/s)
Visibility: 6 or more miles (10+ km)
Ceiling: 7200 feet AGL
Clouds: scattered clouds at 4600 feet AGL
broken clouds at 7200 feet AGL
broken clouds at 9800 feet AGL
Weather: -RA  (light rain)

METAR text: ENAN 201750Z AUTO 21035G46KT 9999 -RA OVC062/// 08/04 Q1013
Conditions at: ENAN (ANDOYA/ANDENES(A, NO) observed 1750 UTC 20 April 2019
Temperature: 8.0°C (46°F)
Dewpoint: 4.0°C (39°F) [RH = 76%]
Pressure (altimeter): 29.91 inches Hg (1013.0 mb)
Winds: from the SSW (210 degrees) at 40 MPH (35 knots; 18.0 m/s)
gusting to 53 MPH (46 knots; 23.7 m/s)
Visibility: 6 or more miles (10+ km)
Ceiling: 6200 feet AGL
Clouds: overcast cloud deck at 6200 feet AGL
Weather: -RA  (light rain)

METAR text: ENAN 201720Z AUTO 20029G43KT 9999 -RA OVC061/// 08/04 Q1013 RERA
Conditions at: ENAN (ANDOYA/ANDENES(A, NO) observed 1720 UTC 20 April 2019
Temperature: 8.0°C (46°F)
Dewpoint: 4.0°C (39°F) [RH = 76%]
Pressure (altimeter): 29.91 inches Hg (1013.0 mb)
Winds: from the SSW (200 degrees) at 33 MPH (29 knots; 14.9 m/s)
gusting to 49 MPH (43 knots; 22.1 m/s)
Visibility: 6 or more miles (10+ km)
Ceiling: 6100 feet AGL
Clouds: overcast cloud deck at 6100 feet AGL
Weather: -RA  (light rain)

METAR text: ENAN 201650Z AUTO 20024G35KT 9999 OVC053/// 09/02 Q1014
Conditions at: ENAN (ANDOYA/ANDENES(A, NO) observed 1650 UTC 20 April 2019
Temperature: 9.0°C (48°F)
Dewpoint: 2.0°C (36°F) [RH = 61%]
Pressure (altimeter): 29.94 inches Hg (1014.0 mb)
Winds: from the SSW (200 degrees) at 28 MPH (24 knots; 12.3 m/s)
gusting to 40 MPH (35 knots; 18.0 m/s)
Visibility: 6 or more miles (10+ km)
Ceiling: 5300 feet AGL
Clouds: overcast cloud deck at 5300 feet AGL
Weather: no significant weather observed at this time

METAR text: ENAN 201620Z AUTO 21024KT 9999 -DZ FEW049/// OVC068/// 10/02 Q1014
Conditions at: ENAN (ANDOYA/ANDENES(A, NO) observed 1620 UTC 20 April 2019
Temperature: 10.0°C (50°F)
Dewpoint: 2.0°C (36°F) [RH = 57%]
Pressure (altimeter): 29.94 inches Hg (1014.0 mb)
Winds: from the SSW (210 degrees) at 28 MPH (24 knots; 12.3 m/s)
Visibility: 6 or more miles (10+ km)
Ceiling: 6800 feet AGL
Clouds: few clouds at 4900 feet AGL
overcast cloud deck at 6800 feet AGL
Weather: -DZ  (light drizzle)

METAR text: ENAN 201550Z AUTO 18015KT 9999 -DZ OVC055/// 09/02 Q1015
Conditions at: ENAN (ANDOYA/ANDENES(A, NO) observed 1550 UTC 20 April 2019
Temperature: 9.0°C (48°F)
Dewpoint: 2.0°C (36°F) [RH = 61%]
Pressure (altimeter): 29.97 inches Hg (1015.0 mb)
Winds: from the S (180 degrees) at 17 MPH (15 knots; 7.7 m/s)
Visibility: 6 or more miles (10+ km)
Ceiling: 5500 feet AGL
Clouds: overcast cloud deck at 5500 feet AGL
Weather: -DZ  (light drizzle)

METAR text: ENAN 201520Z AUTO 18015KT 9999 BKN064/// OVC082/// 09/02 Q1016
Conditions at: ENAN (ANDOYA/ANDENES(A, NO) observed 1520 UTC 20 April 2019
Temperature: 9.0°C (48°F)
Dewpoint: 2.0°C (36°F) [RH = 61%]
Pressure (altimeter): 30.00 inches Hg (1016.0 mb)
Winds: from the S (180 degrees) at 17 MPH (15 knots; 7.7 m/s)
Visibility: 6 or more miles (10+ km)
Ceiling: 6400 feet AGL
Clouds: broken clouds at 6400 feet AGL
overcast cloud deck at 8200 feet AGL
Weather: no significant weather observed at this time

METAR text: ENAN 201450Z AUTO 20017KT 9999 BKN064/// OVC100/// 10/02 Q1017
Conditions at: ENAN (ANDOYA/ANDENES(A, NO) observed 1450 UTC 20 April 2019
Temperature: 10.0°C (50°F)
Dewpoint: 2.0°C (36°F) [RH = 57%]
Pressure (altimeter): 30.03 inches Hg (1017.0 mb)
Winds: from the SSW (200 degrees) at 20 MPH (17 knots; 8.7 m/s)
Visibility: 6 or more miles (10+ km)
Ceiling: 6400 feet AGL
Clouds: broken clouds at 6400 feet AGL
overcast cloud deck at 10000 feet AGL
Weather: no significant weather observed at this time

Forecast for: ENAN (ANDOYA/ANDENES(A, NO)
Text: TAF ENAN 2200/2224 24020KT 9999 -SHRA FEW012 BKN025
Forecast period: 0000 to 1100 UTC 22 April 2019
Forecast type: FROM: standard forecast or significant change
Winds: from the WSW (240 degrees) at 23 MPH (20 knots; 10.3 m/s)
Visibility: 6 or more miles 10+ km)
Ceiling: 2500 feet AGL
Clouds: few clouds at 1200 feet AGL
broken clouds at 2500 feet AGL
Weather: -SHRA  (light rain showers)
Text: TEMPO 2200/2203 25025G35KT
Forecast period: 0000 to 0300 UTC 22 April 2019
Forecast type: TEMPORARY: The following changes expected for less than half the time period
Winds: from the WSW (250 degrees) at 29 MPH (25 knots; 12.9 m/s)
gusting to 40 MPH (35 knots; 18.0 m/s)
Visibility: missing
Ceiling: unknown
Clouds: missing
Weather: no significant weather forecast for this period
Text: BECMG 2211/2213 18010KT
Forecast period: 1100 to 1600 UTC 22 April 2019
Forecast type: BECOMING: Conditions expected to become as follows by 1300 UTC 22 April 2019
Winds: from the S (180 degrees) at 12 MPH (10 knots; 5.1 m/s)
Visibility: 6 or more miles 10+ km)
Ceiling: 2500 feet AGL
Clouds: few clouds at 1200 feet AGL
broken clouds at 2500 feet AGL
Weather: -SHRA  (light rain showers)
Text: BECMG 2216/2219 24020KT BKN014
Forecast period: 1600 UTC 22 April 2019 to 0000 UTC 23 April 2019
Forecast type: BECOMING: Conditions expected to become as follows by 1900 UTC 22 April 2019
Winds: from the WSW (240 degrees) at 23 MPH (20 knots; 10.3 m/s)
Visibility: 6 or more miles 10+ km)
Ceiling: 1400 feet AGL
Clouds: broken clouds at 1400 feet AGL
Weather: -SHRA  (light rain showers)
Text: TEMPO 2216/2224 24025G35KT 4000 RADZ BKN008
Forecast period: 1600 UTC 22 April 2019 to 0000 UTC 23 April 2019
Forecast type: TEMPORARY: The following changes expected for less than half the time period
Winds: from the WSW (240 degrees) at 29 MPH (25 knots; 12.9 m/s)
gusting to 40 MPH (35 knots; 18.0 m/s)
Visibility: 2.49 miles (4.01 km)
Ceiling: 800 feet AGL
Clouds: broken clouds at 800 feet AGL
Weather: RA DZ  (moderate rain, moderate drizzle)